sensor_id;sensor_type;location;lat;lon;timestamp;P1;durP1;ratioP1;P2;durP2;ratioP2
677;SDS011;321;48.814;9.132;2023-04-30T00:00:06;5.17;;;2.47;;
677;SDS011;321;48.814;9.132;2023-04-30T00:02:33;3.17;;;2.50;;
677;SDS011;321;48.814;9.132;2023-04-30T00:04:59;1.67;;;1.27;;
677;SDS011;321;48.814;9.132;2023-04-30T00:07:25;2.57;;;2.07;;
677;SDS011;321;48.814;9.132;2023-04-30T00:09:50;3.13;;;2.10;;
677;SDS011;321;48.814;9.132;2023-04-30T00:12:16;2.90;;;2.20;;
677;SDS011;321;48.814;9.132;2023-04-30T00:14:41;2.43;;;1.70;;
677;SDS011;321;48.814;9.132;2023-04-30T00:17:07;2.00;;;1.50;;
677;SDS011;321;48.814;9.132;2023-04-30T00:19:33;2.77;;;1.80;;
677;SDS011;321;48.814;9.132;2023-04-30T00:21:58;2.07;;;1.27;;
677;SDS011;321;48.814;9.132;2023-04-30T00:24:25;2.50;;;1.67;;
677;SDS011;321;48.814;9.132;2023-04-30T00:26:51;2.10;;;1.90;;
677;SDS011;321;48.814;9.132;2023-04-30T00:29:17;1.70;;;1.20;;
677;SDS011;321;48.814;9.132;2023-04-30T00:31:42;2.67;;;1.70;;
677;SDS011;321;48.814;9.132;2023-04-30T00:34:08;1.77;;;1.57;;
677;SDS011;321;48.814;9.132;2023-04-30T00:36:33;2.67;;;2.00;;
677;SDS011;321;48.814;9.132;2023-04-30T00:38:59;1.90;;;1.63;;
677;SDS011;321;48.814;9.132;2023-04-30T00:41:25;2.33;;;1.67;;
677;SDS011;321;48.814;9.132;2023-04-30T00:43:52;1.73;;;1.50;;
677;SDS011;321;48.814;9.132;2023-04-30T00:46:17;2.00;;;1.70;;
677;SDS011;321;48.814;9.132;2023-04-30T00:48:43;3.50;;;1.20;;
677;SDS011;321;48.814;9.132;2023-04-30T00:51:08;1.63;;;1.20;;
677;SDS011;321;48.814;9.132;2023-04-30T00:53:35;3.30;;;1.70;;
677;SDS011;321;48.814;9.132;2023-04-30T00:56:04;1.90;;;1.50;;
677;SDS011;321;48.814;9.132;2023-04-30T00:58:30;4.23;;;1.37;;
677;SDS011;321;48.814;9.132;2023-04-30T01:00:56;1.90;;;1.27;;
677;SDS011;321;48.814;9.132;2023-04-30T01:03:22;1.50;;;1.23;;
677;SDS011;321;48.814;9.132;2023-04-30T01:05:48;1.70;;;1.20;;
677;SDS011;321;48.814;9.132;2023-04-30T01:08:14;2.07;;;1.50;;
677;SDS011;321;48.814;9.132;2023-04-30T01:10:45;2.73;;;1.70;;
677;SDS011;321;48.814;9.132;2023-04-30T01:13:28;2.10;;;1.57;;
677;SDS011;321;48.814;9.132;2023-04-30T01:15:58;1.63;;;1.33;;
677;SDS011;321;48.814;9.132;2023-04-30T01:18:42;2.60;;;1.53;;
677;SDS011;321;48.814;9.132;2023-04-30T01:21:17;2.90;;;1.40;;
677;SDS011;321;48.814;9.132;2023-04-30T01:24:00;3.10;;;1.77;;
677;SDS011;321;48.814;9.132;2023-04-30T01:26:34;2.63;;;1.73;;
677;SDS011;321;48.814;9.132;2023-04-30T01:29:10;3.80;;;2.10;;
677;SDS011;321;48.814;9.132;2023-04-30T01:31:38;3.33;;;1.53;;
677;SDS011;321;48.814;9.132;2023-04-30T01:34:07;4.10;;;1.57;;
677;SDS011;321;48.814;9.132;2023-04-30T01:47:56;3.57;;;2.50;;
677;SDS011;321;48.814;9.132;2023-04-30T01:50:48;3.77;;;2.87;;
677;SDS011;321;48.814;9.132;2023-04-30T01:53:19;3.17;;;2.33;;
677;SDS011;321;48.814;9.132;2023-04-30T01:58:21;5.77;;;2.87;;
677;SDS011;321;48.814;9.132;2023-04-30T02:00:48;2.70;;;2.20;;
677;SDS011;321;48.814;9.132;2023-04-30T02:03:13;3.20;;;2.83;;
677;SDS011;321;48.814;9.132;2023-04-30T02:05:39;11.10;;;3.17;;
677;SDS011;321;48.814;9.132;2023-04-30T02:08:04;7.80;;;2.90;;
677;SDS011;321;48.814;9.132;2023-04-30T02:10:30;3.93;;;2.73;;
677;SDS011;321;48.814;9.132;2023-04-30T02:12:56;3.60;;;2.50;;
677;SDS011;321;48.814;9.132;2023-04-30T02:15:21;3.40;;;2.60;;
677;SDS011;321;48.814;9.132;2023-04-30T02:17:47;5.50;;;3.20;;
677;SDS011;321;48.814;9.132;2023-04-30T02:20:12;5.33;;;3.27;;
677;SDS011;321;48.814;9.132;2023-04-30T02:22:38;7.33;;;2.53;;
677;SDS011;321;48.814;9.132;2023-04-30T02:25:04;3.20;;;1.87;;
677;SDS011;321;48.814;9.132;2023-04-30T02:27:30;3.27;;;2.60;;
677;SDS011;321;48.814;9.132;2023-04-30T02:29:56;4.33;;;2.63;;
677;SDS011;321;48.814;9.132;2023-04-30T02:32:23;2.37;;;1.80;;
677;SDS011;321;48.814;9.132;2023-04-30T02:34:48;3.90;;;3.50;;
677;SDS011;321;48.814;9.132;2023-04-30T02:37:14;3.40;;;2.70;;
677;SDS011;321;48.814;9.132;2023-04-30T02:39:40;2.73;;;1.57;;
677;SDS011;321;48.814;9.132;2023-04-30T02:42:05;2.23;;;1.83;;
677;SDS011;321;48.814;9.132;2023-04-30T02:44:31;2.73;;;2.20;;
677;SDS011;321;48.814;9.132;2023-04-30T02:46:58;2.50;;;2.30;;
677;SDS011;321;48.814;9.132;2023-04-30T02:49:23;2.33;;;2.13;;
677;SDS011;321;48.814;9.132;2023-04-30T02:51:49;2.63;;;2.43;;
677;SDS011;321;48.814;9.132;2023-04-30T02:54:15;3.00;;;2.60;;
677;SDS011;321;48.814;9.132;2023-04-30T02:56:40;3.93;;;2.17;;
677;SDS011;321;48.814;9.132;2023-04-30T02:59:06;4.27;;;3.07;;
677;SDS011;321;48.814;9.132;2023-04-30T03:01:32;3.27;;;2.47;;
677;SDS011;321;48.814;9.132;2023-04-30T03:03:57;2.40;;;2.00;;
677;SDS011;321;48.814;9.132;2023-04-30T03:06:23;3.33;;;2.00;;
677;SDS011;321;48.814;9.132;2023-04-30T03:08:49;3.30;;;3.00;;
677;SDS011;321;48.814;9.132;2023-04-30T03:11:14;3.73;;;2.87;;
677;SDS011;321;48.814;9.132;2023-04-30T03:13:40;5.37;;;3.30;;
677;SDS011;321;48.814;9.132;2023-04-30T03:16:06;7.73;;;4.00;;
677;SDS011;321;48.814;9.132;2023-04-30T03:18:32;3.20;;;2.77;;
677;SDS011;321;48.814;9.132;2023-04-30T03:20:57;4.63;;;3.20;;
677;SDS011;321;48.814;9.132;2023-04-30T03:23:25;2.77;;;2.30;;
677;SDS011;321;48.814;9.132;2023-04-30T03:25:51;3.10;;;2.57;;
677;SDS011;321;48.814;9.132;2023-04-30T03:28:17;3.97;;;3.27;;
677;SDS011;321;48.814;9.132;2023-04-30T03:30:42;3.97;;;2.80;;
677;SDS011;321;48.814;9.132;2023-04-30T03:33:08;3.77;;;3.03;;
677;SDS011;321;48.814;9.132;2023-04-30T03:35:34;2.20;;;1.67;;
677;SDS011;321;48.814;9.132;2023-04-30T03:38:00;4.47;;;3.53;;
677;SDS011;321;48.814;9.132;2023-04-30T03:40:25;3.03;;;2.27;;
677;SDS011;321;48.814;9.132;2023-04-30T03:42:51;3.73;;;2.97;;
677;SDS011;321;48.814;9.132;2023-04-30T03:45:17;2.53;;;2.00;;
677;SDS011;321;48.814;9.132;2023-04-30T03:47:43;4.60;;;3.10;;
677;SDS011;321;48.814;9.132;2023-04-30T03:50:09;2.57;;;2.30;;
677;SDS011;321;48.814;9.132;2023-04-30T03:52:35;3.70;;;2.57;;
677;SDS011;321;48.814;9.132;2023-04-30T03:55:01;4.03;;;3.00;;
677;SDS011;321;48.814;9.132;2023-04-30T03:57:27;3.67;;;2.90;;
677;SDS011;321;48.814;9.132;2023-04-30T03:59:53;2.53;;;1.90;;
677;SDS011;321;48.814;9.132;2023-04-30T04:02:19;3.43;;;2.57;;
677;SDS011;321;48.814;9.132;2023-04-30T04:04:45;4.47;;;2.97;;
677;SDS011;321;48.814;9.132;2023-04-30T04:07:11;3.13;;;2.83;;
677;SDS011;321;48.814;9.132;2023-04-30T04:09:37;3.77;;;2.77;;
677;SDS011;321;48.814;9.132;2023-04-30T04:12:03;3.50;;;2.57;;
677;SDS011;321;48.814;9.132;2023-04-30T04:14:29;3.83;;;3.30;;
677;SDS011;321;48.814;9.132;2023-04-30T04:16:54;3.73;;;2.70;;
677;SDS011;321;48.814;9.132;2023-04-30T04:19:21;5.40;;;3.83;;
677;SDS011;321;48.814;9.132;2023-04-30T04:21:47;7.00;;;4.07;;
677;SDS011;321;48.814;9.132;2023-04-30T04:24:13;5.17;;;3.63;;
677;SDS011;321;48.814;9.132;2023-04-30T04:26:39;3.77;;;3.10;;
677;SDS011;321;48.814;9.132;2023-04-30T04:29:05;2.40;;;2.03;;
677;SDS011;321;48.814;9.132;2023-04-30T04:31:33;3.10;;;2.57;;
677;SDS011;321;48.814;9.132;2023-04-30T04:33:59;3.93;;;2.80;;
677;SDS011;321;48.814;9.132;2023-04-30T04:36:27;3.50;;;2.83;;
677;SDS011;321;48.814;9.132;2023-04-30T04:38:54;2.97;;;2.33;;
677;SDS011;321;48.814;9.132;2023-04-30T04:41:21;2.57;;;1.97;;
677;SDS011;321;48.814;9.132;2023-04-30T04:43:48;3.37;;;2.73;;
677;SDS011;321;48.814;9.132;2023-04-30T04:46:13;2.73;;;1.80;;
677;SDS011;321;48.814;9.132;2023-04-30T04:48:40;4.60;;;2.57;;
677;SDS011;321;48.814;9.132;2023-04-30T04:51:06;2.30;;;2.10;;
677;SDS011;321;48.814;9.132;2023-04-30T04:53:32;2.90;;;2.43;;
677;SDS011;321;48.814;9.132;2023-04-30T04:55:57;2.67;;;2.00;;
677;SDS011;321;48.814;9.132;2023-04-30T04:58:23;3.80;;;2.60;;
677;SDS011;321;48.814;9.132;2023-04-30T05:00:49;3.37;;;2.23;;
677;SDS011;321;48.814;9.132;2023-04-30T05:03:14;3.53;;;2.70;;
677;SDS011;321;48.814;9.132;2023-04-30T05:05:40;4.43;;;2.80;;
677;SDS011;321;48.814;9.132;2023-04-30T05:08:05;3.97;;;3.57;;
677;SDS011;321;48.814;9.132;2023-04-30T05:10:31;4.07;;;2.60;;
677;SDS011;321;48.814;9.132;2023-04-30T05:12:56;3.53;;;2.67;;
677;SDS011;321;48.814;9.132;2023-04-30T05:15:22;3.77;;;3.37;;
677;SDS011;321;48.814;9.132;2023-04-30T05:17:47;2.87;;;2.57;;
677;SDS011;321;48.814;9.132;2023-04-30T05:20:13;5.37;;;3.67;;
677;SDS011;321;48.814;9.132;2023-04-30T05:22:38;5.97;;;3.23;;
677;SDS011;321;48.814;9.132;2023-04-30T05:25:04;6.77;;;2.33;;
677;SDS011;321;48.814;9.132;2023-04-30T05:27:30;5.10;;;2.30;;
677;SDS011;321;48.814;9.132;2023-04-30T05:29:56;4.67;;;3.00;;
677;SDS011;321;48.814;9.132;2023-04-30T05:32:21;4.77;;;3.60;;
677;SDS011;321;48.814;9.132;2023-04-30T05:34:47;5.40;;;4.60;;
677;SDS011;321;48.814;9.132;2023-04-30T05:37:13;4.63;;;3.77;;
677;SDS011;321;48.814;9.132;2023-04-30T05:39:40;3.90;;;3.40;;
677;SDS011;321;48.814;9.132;2023-04-30T05:42:06;5.07;;;3.03;;
677;SDS011;321;48.814;9.132;2023-04-30T05:44:31;4.73;;;4.17;;
677;SDS011;321;48.814;9.132;2023-04-30T05:46:57;4.20;;;3.00;;
677;SDS011;321;48.814;9.132;2023-04-30T05:49:22;4.33;;;3.57;;
677;SDS011;321;48.814;9.132;2023-04-30T05:51:49;4.10;;;3.27;;
677;SDS011;321;48.814;9.132;2023-04-30T05:54:14;4.87;;;4.03;;
677;SDS011;321;48.814;9.132;2023-04-30T05:56:40;4.70;;;3.10;;
677;SDS011;321;48.814;9.132;2023-04-30T05:59:05;6.10;;;2.90;;
677;SDS011;321;48.814;9.132;2023-04-30T06:01:31;4.13;;;2.83;;
677;SDS011;321;48.814;9.132;2023-04-30T06:03:56;4.37;;;3.30;;
677;SDS011;321;48.814;9.132;2023-04-30T06:06:25;6.60;;;3.20;;
677;SDS011;321;48.814;9.132;2023-04-30T06:08:51;4.03;;;3.30;;
677;SDS011;321;48.814;9.132;2023-04-30T06:11:17;3.80;;;2.93;;
677;SDS011;321;48.814;9.132;2023-04-30T06:13:43;3.63;;;3.33;;
677;SDS011;321;48.814;9.132;2023-04-30T06:16:11;3.73;;;3.33;;
677;SDS011;321;48.814;9.132;2023-04-30T06:18:36;4.90;;;3.10;;
677;SDS011;321;48.814;9.132;2023-04-30T06:21:02;5.73;;;3.60;;
677;SDS011;321;48.814;9.132;2023-04-30T06:23:27;5.43;;;3.57;;
677;SDS011;321;48.814;9.132;2023-04-30T06:25:53;5.10;;;3.07;;
677;SDS011;321;48.814;9.132;2023-04-30T06:28:19;3.77;;;2.80;;
677;SDS011;321;48.814;9.132;2023-04-30T06:30:45;3.23;;;2.80;;
677;SDS011;321;48.814;9.132;2023-04-30T06:33:11;4.13;;;3.67;;
677;SDS011;321;48.814;9.132;2023-04-30T06:35:36;5.00;;;3.63;;
677;SDS011;321;48.814;9.132;2023-04-30T06:38:02;4.60;;;2.77;;
677;SDS011;321;48.814;9.132;2023-04-30T06:40:28;4.60;;;3.27;;
677;SDS011;321;48.814;9.132;2023-04-30T06:42:53;5.30;;;3.10;;
677;SDS011;321;48.814;9.132;2023-04-30T06:45:19;4.27;;;3.87;;
677;SDS011;321;48.814;9.132;2023-04-30T06:47:44;5.17;;;4.47;;
677;SDS011;321;48.814;9.132;2023-04-30T06:50:11;5.43;;;3.40;;
677;SDS011;321;48.814;9.132;2023-04-30T06:52:37;3.63;;;2.53;;
677;SDS011;321;48.814;9.132;2023-04-30T06:55:03;4.23;;;3.73;;
677;SDS011;321;48.814;9.132;2023-04-30T06:57:29;4.07;;;3.60;;
677;SDS011;321;48.814;9.132;2023-04-30T06:59:55;7.13;;;3.50;;
677;SDS011;321;48.814;9.132;2023-04-30T07:02:20;3.20;;;2.90;;
677;SDS011;321;48.814;9.132;2023-04-30T07:04:46;5.13;;;3.97;;
677;SDS011;321;48.814;9.132;2023-04-30T07:07:13;5.73;;;3.27;;
677;SDS011;321;48.814;9.132;2023-04-30T07:09:38;5.10;;;3.13;;
677;SDS011;321;48.814;9.132;2023-04-30T07:12:04;4.13;;;2.50;;
677;SDS011;321;48.814;9.132;2023-04-30T07:14:30;3.73;;;3.03;;
677;SDS011;321;48.814;9.132;2023-04-30T07:16:55;4.60;;;2.80;;
677;SDS011;321;48.814;9.132;2023-04-30T07:19:21;3.60;;;2.67;;
677;SDS011;321;48.814;9.132;2023-04-30T07:21:49;2.90;;;2.67;;
677;SDS011;321;48.814;9.132;2023-04-30T07:24:14;3.77;;;3.17;;
677;SDS011;321;48.814;9.132;2023-04-30T07:26:40;3.73;;;3.23;;
677;SDS011;321;48.814;9.132;2023-04-30T07:29:06;6.13;;;3.07;;
677;SDS011;321;48.814;9.132;2023-04-30T07:31:32;4.97;;;2.70;;
677;SDS011;321;48.814;9.132;2023-04-30T07:33:58;3.97;;;3.17;;
677;SDS011;321;48.814;9.132;2023-04-30T07:36:23;4.00;;;2.43;;
677;SDS011;321;48.814;9.132;2023-04-30T07:38:51;2.37;;;2.13;;
677;SDS011;321;48.814;9.132;2023-04-30T07:41:17;4.33;;;2.60;;
677;SDS011;321;48.814;9.132;2023-04-30T07:43:42;3.17;;;2.87;;
677;SDS011;321;48.814;9.132;2023-04-30T07:46:08;3.37;;;2.57;;
677;SDS011;321;48.814;9.132;2023-04-30T07:48:34;3.40;;;2.47;;
677;SDS011;321;48.814;9.132;2023-04-30T07:50:59;3.03;;;2.60;;
677;SDS011;321;48.814;9.132;2023-04-30T07:53:25;3.30;;;2.27;;
677;SDS011;321;48.814;9.132;2023-04-30T07:55:51;3.73;;;2.63;;
677;SDS011;321;48.814;9.132;2023-04-30T07:58:17;4.20;;;1.80;;
677;SDS011;321;48.814;9.132;2023-04-30T08:00:42;2.53;;;1.43;;
677;SDS011;321;48.814;9.132;2023-04-30T08:03:08;5.57;;;2.70;;
677;SDS011;321;48.814;9.132;2023-04-30T08:05:33;2.43;;;2.13;;
677;SDS011;321;48.814;9.132;2023-04-30T08:07:59;2.10;;;1.53;;
677;SDS011;321;48.814;9.132;2023-04-30T08:10:25;2.30;;;1.70;;
677;SDS011;321;48.814;9.132;2023-04-30T08:12:50;3.50;;;2.00;;
677;SDS011;321;48.814;9.132;2023-04-30T08:15:17;2.63;;;2.23;;
677;SDS011;321;48.814;9.132;2023-04-30T08:17:47;3.03;;;2.17;;
677;SDS011;321;48.814;9.132;2023-04-30T08:20:16;2.27;;;1.90;;
677;SDS011;321;48.814;9.132;2023-04-30T08:22:43;2.90;;;2.10;;
677;SDS011;321;48.814;9.132;2023-04-30T08:25:11;3.43;;;2.10;;
677;SDS011;321;48.814;9.132;2023-04-30T08:27:37;2.30;;;1.73;;
677;SDS011;321;48.814;9.132;2023-04-30T08:30:03;4.10;;;1.90;;
677;SDS011;321;48.814;9.132;2023-04-30T08:32:33;2.40;;;1.63;;
677;SDS011;321;48.814;9.132;2023-04-30T08:35:05;3.30;;;2.00;;
677;SDS011;321;48.814;9.132;2023-04-30T08:37:32;1.80;;;1.40;;
677;SDS011;321;48.814;9.132;2023-04-30T08:39:57;1.60;;;1.10;;
677;SDS011;321;48.814;9.132;2023-04-30T08:42:24;3.03;;;2.23;;
677;SDS011;321;48.814;9.132;2023-04-30T08:44:53;2.23;;;1.40;;
677;SDS011;321;48.814;9.132;2023-04-30T08:47:18;1.80;;;1.57;;
677;SDS011;321;48.814;9.132;2023-04-30T08:49:45;2.73;;;1.83;;
677;SDS011;321;48.814;9.132;2023-04-30T08:52:11;3.27;;;1.60;;
677;SDS011;321;48.814;9.132;2023-04-30T08:54:37;2.23;;;1.47;;
677;SDS011;321;48.814;9.132;2023-04-30T08:57:02;1.87;;;1.53;;
677;SDS011;321;48.814;9.132;2023-04-30T08:59:29;1.93;;;1.27;;
677;SDS011;321;48.814;9.132;2023-04-30T09:01:54;3.27;;;1.80;;
677;SDS011;321;48.814;9.132;2023-04-30T09:04:20;4.07;;;1.83;;
677;SDS011;321;48.814;9.132;2023-04-30T09:06:46;6.00;;;1.70;;
677;SDS011;321;48.814;9.132;2023-04-30T09:09:12;3.13;;;1.63;;
677;SDS011;321;48.814;9.132;2023-04-30T09:11:39;2.03;;;1.20;;
677;SDS011;321;48.814;9.132;2023-04-30T09:14:06;2.00;;;1.30;;
677;SDS011;321;48.814;9.132;2023-04-30T09:16:48;1.90;;;1.30;;
677;SDS011;321;48.814;9.132;2023-04-30T09:19:21;2.07;;;1.10;;
677;SDS011;321;48.814;9.132;2023-04-30T09:21:48;1.73;;;1.00;;
677;SDS011;321;48.814;9.132;2023-04-30T09:24:14;2.07;;;1.30;;
677;SDS011;321;48.814;9.132;2023-04-30T09:26:39;5.60;;;0.97;;
677;SDS011;321;48.814;9.132;2023-04-30T09:29:05;2.60;;;1.47;;
677;SDS011;321;48.814;9.132;2023-04-30T09:31:38;1.73;;;0.97;;
677;SDS011;321;48.814;9.132;2023-04-30T09:34:06;1.80;;;1.07;;
677;SDS011;321;48.814;9.132;2023-04-30T09:36:32;2.03;;;1.23;;
677;SDS011;321;48.814;9.132;2023-04-30T09:39:08;1.80;;;1.00;;
677;SDS011;321;48.814;9.132;2023-04-30T09:41:42;1.57;;;0.90;;
677;SDS011;321;48.814;9.132;2023-04-30T09:44:24;1.40;;;0.70;;
677;SDS011;321;48.814;9.132;2023-04-30T09:46:51;1.30;;;0.70;;
677;SDS011;321;48.814;9.132;2023-04-30T09:49:17;1.47;;;0.67;;
677;SDS011;321;48.814;9.132;2023-04-30T09:51:56;1.87;;;1.23;;
677;SDS011;321;48.814;9.132;2023-04-30T09:54:27;1.60;;;1.00;;
677;SDS011;321;48.814;9.132;2023-04-30T09:56:54;2.57;;;1.20;;
677;SDS011;321;48.814;9.132;2023-04-30T09:59:22;2.40;;;1.60;;
677;SDS011;321;48.814;9.132;2023-04-30T10:01:56;1.70;;;1.40;;
677;SDS011;321;48.814;9.132;2023-04-30T10:04:24;1.70;;;1.20;;
677;SDS011;321;48.814;9.132;2023-04-30T10:06:52;2.47;;;1.63;;
677;SDS011;321;48.814;9.132;2023-04-30T10:09:21;1.70;;;1.10;;
677;SDS011;321;48.814;9.132;2023-04-30T10:11:49;2.13;;;1.40;;
677;SDS011;321;48.814;9.132;2023-04-30T10:14:15;1.77;;;1.20;;
677;SDS011;321;48.814;9.132;2023-04-30T10:16:50;2.40;;;1.57;;
677;SDS011;321;48.814;9.132;2023-04-30T10:19:22;1.90;;;1.10;;
677;SDS011;321;48.814;9.132;2023-04-30T10:21:54;2.07;;;1.30;;
677;SDS011;321;48.814;9.132;2023-04-30T10:24:20;2.23;;;1.00;;
677;SDS011;321;48.814;9.132;2023-04-30T10:26:46;1.60;;;1.13;;
677;SDS011;321;48.814;9.132;2023-04-30T10:29:13;1.97;;;1.10;;
677;SDS011;321;48.814;9.132;2023-04-30T10:31:44;2.73;;;1.60;;
677;SDS011;321;48.814;9.132;2023-04-30T10:34:24;2.00;;;1.47;;
677;SDS011;321;48.814;9.132;2023-04-30T10:37:20;1.67;;;1.57;;
677;SDS011;321;48.814;9.132;2023-04-30T10:39:54;8.50;;;2.17;;
677;SDS011;321;48.814;9.132;2023-04-30T10:42:20;1.90;;;1.37;;
677;SDS011;321;48.814;9.132;2023-04-30T10:44:46;1.60;;;0.93;;
677;SDS011;321;48.814;9.132;2023-04-30T10:47:12;1.93;;;1.20;;
677;SDS011;321;48.814;9.132;2023-04-30T10:49:38;4.53;;;1.73;;
677;SDS011;321;48.814;9.132;2023-04-30T10:52:06;2.37;;;1.27;;
677;SDS011;321;48.814;9.132;2023-04-30T10:54:35;2.13;;;1.07;;
677;SDS011;321;48.814;9.132;2023-04-30T10:59:35;1.57;;;1.00;;
677;SDS011;321;48.814;9.132;2023-04-30T11:02:01;2.47;;;1.37;;
677;SDS011;321;48.814;9.132;2023-04-30T11:04:27;2.90;;;1.30;;
677;SDS011;321;48.814;9.132;2023-04-30T11:09:23;2.27;;;1.30;;
677;SDS011;321;48.814;9.132;2023-04-30T11:12:04;4.10;;;2.00;;
677;SDS011;321;48.814;9.132;2023-04-30T11:15:04;2.13;;;1.60;;
677;SDS011;321;48.814;9.132;2023-04-30T11:17:31;2.10;;;1.40;;
677;SDS011;321;48.814;9.132;2023-04-30T11:20:00;2.37;;;1.50;;
677;SDS011;321;48.814;9.132;2023-04-30T11:22:26;3.20;;;1.70;;
677;SDS011;321;48.814;9.132;2023-04-30T11:25:09;2.20;;;1.43;;
677;SDS011;321;48.814;9.132;2023-04-30T11:27:42;2.70;;;1.53;;
677;SDS011;321;48.814;9.132;2023-04-30T11:30:12;2.20;;;1.70;;
677;SDS011;321;48.814;9.132;2023-04-30T11:32:39;1.80;;;1.00;;
677;SDS011;321;48.814;9.132;2023-04-30T11:35:08;1.70;;;1.20;;
677;SDS011;321;48.814;9.132;2023-04-30T11:37:35;2.20;;;1.37;;
677;SDS011;321;48.814;9.132;2023-04-30T11:40:04;2.13;;;1.40;;
677;SDS011;321;48.814;9.132;2023-04-30T11:42:35;3.37;;;2.13;;
677;SDS011;321;48.814;9.132;2023-04-30T11:45:09;2.23;;;1.73;;
677;SDS011;321;48.814;9.132;2023-04-30T11:47:40;2.20;;;1.53;;
677;SDS011;321;48.814;9.132;2023-04-30T11:50:10;5.00;;;1.80;;
677;SDS011;321;48.814;9.132;2023-04-30T11:52:37;1.97;;;1.50;;
677;SDS011;321;48.814;9.132;2023-04-30T11:55:05;2.27;;;1.37;;
677;SDS011;321;48.814;9.132;2023-04-30T11:57:42;2.33;;;1.60;;
677;SDS011;321;48.814;9.132;2023-04-30T12:00:11;1.93;;;1.20;;
677;SDS011;321;48.814;9.132;2023-04-30T12:02:39;1.90;;;1.33;;
677;SDS011;321;48.814;9.132;2023-04-30T12:05:19;2.60;;;1.63;;
677;SDS011;321;48.814;9.132;2023-04-30T12:10:21;2.87;;;1.73;;
677;SDS011;321;48.814;9.132;2023-04-30T12:12:49;3.07;;;2.20;;
677;SDS011;321;48.814;9.132;2023-04-30T12:15:19;3.60;;;1.70;;
677;SDS011;321;48.814;9.132;2023-04-30T12:17:53;2.13;;;1.93;;
677;SDS011;321;48.814;9.132;2023-04-30T12:20:23;2.37;;;1.60;;
677;SDS011;321;48.814;9.132;2023-04-30T12:22:53;1.80;;;1.60;;
677;SDS011;321;48.814;9.132;2023-04-30T12:25:20;2.50;;;1.70;;
677;SDS011;321;48.814;9.132;2023-04-30T12:27:47;4.97;;;3.20;;
677;SDS011;321;48.814;9.132;2023-04-30T12:30:18;2.00;;;1.40;;
677;SDS011;321;48.814;9.132;2023-04-30T12:32:48;2.00;;;1.40;;
677;SDS011;321;48.814;9.132;2023-04-30T12:35:15;3.10;;;2.03;;
677;SDS011;321;48.814;9.132;2023-04-30T12:37:47;2.03;;;1.43;;
677;SDS011;321;48.814;9.132;2023-04-30T12:40:17;1.70;;;1.40;;
677;SDS011;321;48.814;9.132;2023-04-30T12:42:44;2.77;;;1.90;;
677;SDS011;321;48.814;9.132;2023-04-30T12:45:11;2.07;;;1.50;;
677;SDS011;321;48.814;9.132;2023-04-30T12:47:57;1.97;;;1.60;;
677;SDS011;321;48.814;9.132;2023-04-30T12:50:23;1.93;;;1.57;;
677;SDS011;321;48.814;9.132;2023-04-30T12:52:48;1.50;;;1.03;;
677;SDS011;321;48.814;9.132;2023-04-30T12:55:17;1.90;;;1.17;;
677;SDS011;321;48.814;9.132;2023-04-30T13:00:44;2.27;;;1.20;;
677;SDS011;321;48.814;9.132;2023-04-30T13:03:17;2.43;;;1.53;;
677;SDS011;321;48.814;9.132;2023-04-30T13:05:45;1.60;;;1.30;;
677;SDS011;321;48.814;9.132;2023-04-30T13:08:12;2.17;;;1.67;;
677;SDS011;321;48.814;9.132;2023-04-30T13:10:38;2.27;;;1.63;;
677;SDS011;321;48.814;9.132;2023-04-30T13:13:04;2.27;;;1.60;;
677;SDS011;321;48.814;9.132;2023-04-30T13:15:29;2.63;;;1.20;;
677;SDS011;321;48.814;9.132;2023-04-30T13:17:55;2.23;;;1.40;;
677;SDS011;321;48.814;9.132;2023-04-30T13:20:21;1.70;;;1.20;;
677;SDS011;321;48.814;9.132;2023-04-30T13:22:48;2.23;;;1.60;;
677;SDS011;321;48.814;9.132;2023-04-30T13:25:14;1.70;;;1.13;;
677;SDS011;321;48.814;9.132;2023-04-30T13:27:40;1.60;;;0.93;;
677;SDS011;321;48.814;9.132;2023-04-30T13:30:06;2.97;;;1.60;;
677;SDS011;321;48.814;9.132;2023-04-30T13:32:33;1.73;;;1.20;;
677;SDS011;321;48.814;9.132;2023-04-30T13:34:59;1.40;;;0.93;;
677;SDS011;321;48.814;9.132;2023-04-30T13:37:25;2.73;;;1.80;;
677;SDS011;321;48.814;9.132;2023-04-30T13:39:50;1.73;;;1.30;;
677;SDS011;321;48.814;9.132;2023-04-30T13:42:16;2.07;;;1.13;;
677;SDS011;321;48.814;9.132;2023-04-30T13:44:41;2.67;;;1.40;;
677;SDS011;321;48.814;9.132;2023-04-30T13:47:09;2.10;;;0.90;;
677;SDS011;321;48.814;9.132;2023-04-30T13:49:35;3.47;;;1.80;;
677;SDS011;321;48.814;9.132;2023-04-30T13:52:02;1.50;;;0.93;;
677;SDS011;321;48.814;9.132;2023-04-30T13:54:28;2.27;;;1.30;;
677;SDS011;321;48.814;9.132;2023-04-30T13:56:53;1.80;;;1.20;;
677;SDS011;321;48.814;9.132;2023-04-30T13:59:19;2.07;;;1.00;;
677;SDS011;321;48.814;9.132;2023-04-30T14:01:45;1.40;;;1.07;;
677;SDS011;321;48.814;9.132;2023-04-30T14:04:10;2.00;;;1.40;;
677;SDS011;321;48.814;9.132;2023-04-30T14:06:36;1.70;;;1.20;;
677;SDS011;321;48.814;9.132;2023-04-30T14:09:02;2.07;;;0.90;;
677;SDS011;321;48.814;9.132;2023-04-30T14:11:28;1.90;;;1.40;;
677;SDS011;321;48.814;9.132;2023-04-30T14:13:53;2.33;;;1.27;;
677;SDS011;321;48.814;9.132;2023-04-30T14:16:19;1.43;;;0.97;;
677;SDS011;321;48.814;9.132;2023-04-30T14:18:46;1.80;;;1.33;;
677;SDS011;321;48.814;9.132;2023-04-30T14:21:12;1.40;;;0.90;;
677;SDS011;321;48.814;9.132;2023-04-30T14:23:37;3.70;;;1.27;;
677;SDS011;321;48.814;9.132;2023-04-30T14:26:03;1.60;;;1.30;;
677;SDS011;321;48.814;9.132;2023-04-30T14:28:29;1.70;;;1.30;;
677;SDS011;321;48.814;9.132;2023-04-30T14:30:55;1.57;;;0.80;;
677;SDS011;321;48.814;9.132;2023-04-30T14:33:21;1.53;;;1.03;;
677;SDS011;321;48.814;9.132;2023-04-30T14:35:46;5.10;;;1.60;;
677;SDS011;321;48.814;9.132;2023-04-30T14:38:12;1.80;;;1.40;;
677;SDS011;321;48.814;9.132;2023-04-30T14:40:38;2.43;;;1.33;;
677;SDS011;321;48.814;9.132;2023-04-30T14:43:04;2.20;;;1.30;;
677;SDS011;321;48.814;9.132;2023-04-30T14:45:31;2.50;;;1.50;;
677;SDS011;321;48.814;9.132;2023-04-30T14:47:57;2.03;;;1.53;;
677;SDS011;321;48.814;9.132;2023-04-30T14:50:22;2.87;;;1.23;;
677;SDS011;321;48.814;9.132;2023-04-30T14:52:48;1.40;;;0.87;;
677;SDS011;321;48.814;9.132;2023-04-30T14:55:14;1.87;;;1.13;;
677;SDS011;321;48.814;9.132;2023-04-30T14:57:39;2.00;;;1.20;;
677;SDS011;321;48.814;9.132;2023-04-30T15:00:05;1.70;;;1.40;;
677;SDS011;321;48.814;9.132;2023-04-30T15:02:31;2.00;;;1.20;;
677;SDS011;321;48.814;9.132;2023-04-30T15:04:57;2.73;;;1.40;;
677;SDS011;321;48.814;9.132;2023-04-30T15:07:22;2.10;;;1.70;;
677;SDS011;321;48.814;9.132;2023-04-30T15:09:48;2.37;;;1.47;;
677;SDS011;321;48.814;9.132;2023-04-30T15:12:13;2.33;;;1.43;;
677;SDS011;321;48.814;9.132;2023-04-30T15:14:39;1.97;;;1.43;;
677;SDS011;321;48.814;9.132;2023-04-30T15:17:05;1.80;;;1.43;;
677;SDS011;321;48.814;9.132;2023-04-30T15:19:31;2.33;;;1.60;;
677;SDS011;321;48.814;9.132;2023-04-30T15:21:56;2.37;;;1.80;;
677;SDS011;321;48.814;9.132;2023-04-30T15:24:22;2.57;;;1.23;;
677;SDS011;321;48.814;9.132;2023-04-30T15:26:47;3.50;;;2.07;;
677;SDS011;321;48.814;9.132;2023-04-30T15:29:16;2.10;;;1.43;;
677;SDS011;321;48.814;9.132;2023-04-30T15:31:42;1.67;;;1.00;;
677;SDS011;321;48.814;9.132;2023-04-30T15:34:07;1.50;;;1.13;;
677;SDS011;321;48.814;9.132;2023-04-30T15:36:33;1.60;;;0.87;;
677;SDS011;321;48.814;9.132;2023-04-30T15:38:58;2.13;;;1.30;;
677;SDS011;321;48.814;9.132;2023-04-30T15:41:24;1.80;;;1.33;;
677;SDS011;321;48.814;9.132;2023-04-30T15:43:50;3.80;;;1.70;;
677;SDS011;321;48.814;9.132;2023-04-30T15:46:16;1.93;;;1.30;;
677;SDS011;321;48.814;9.132;2023-04-30T15:48:42;1.80;;;1.27;;
677;SDS011;321;48.814;9.132;2023-04-30T15:51:08;2.27;;;1.30;;
677;SDS011;321;48.814;9.132;2023-04-30T15:53:33;2.73;;;2.20;;
677;SDS011;321;48.814;9.132;2023-04-30T15:55:59;3.60;;;1.37;;
677;SDS011;321;48.814;9.132;2023-04-30T15:58:24;2.07;;;1.13;;
677;SDS011;321;48.814;9.132;2023-04-30T16:00:50;2.10;;;1.37;;
677;SDS011;321;48.814;9.132;2023-04-30T16:03:15;1.60;;;0.93;;
677;SDS011;321;48.814;9.132;2023-04-30T16:05:41;1.83;;;1.30;;
677;SDS011;321;48.814;9.132;2023-04-30T16:08:07;1.60;;;1.10;;